createdAt,value
2024-02-15T00:01:43.705Z,100603.50
2024-02-15T00:04:12.358Z,100595.47
2024-02-15T00:06:39.229Z,100590.97
2024-02-15T00:09:05.900Z,100596.09
2024-02-15T00:11:33.716Z,100601.09
2024-02-15T00:14:01.507Z,100594.66
2024-02-15T00:16:28.733Z,100595.53
2024-02-15T00:18:56.644Z,100602.44
2024-02-15T00:21:27.014Z,100590.81
2024-02-15T00:23:57.048Z,100595.06
2024-02-15T00:26:23.895Z,100593.28
2024-02-15T00:28:50.540Z,100589.59
2024-02-15T00:31:17.184Z,100594.72
2024-02-15T00:33:44.402Z,100584.13
2024-02-15T00:36:11.728Z,100590.28
2024-02-15T00:38:38.492Z,100584.69
2024-02-15T00:41:06.922Z,100581.97
2024-02-15T00:43:36.958Z,100593.13
2024-02-15T00:46:04.225Z,100592.06
2024-02-15T00:48:31.330Z,100600.00
2024-02-15T00:50:59.275Z,100591.69
2024-02-15T00:53:26.208Z,100593.38
2024-02-15T00:55:53.285Z,100587.59
2024-02-15T00:58:19.861Z,100583.16
2024-02-15T01:00:46.520Z,100592.03
2024-02-15T01:03:13.195Z,100598.81
2024-02-15T01:05:39.905Z,100593.38
2024-02-15T01:08:07.432Z,100593.94
2024-02-15T01:10:35.064Z,100596.41
2024-02-15T01:13:01.972Z,100595.00
2024-02-15T01:15:28.675Z,100593.44
2024-02-15T01:17:56.136Z,100593.53
2024-02-15T01:20:22.832Z,100589.97
2024-02-15T01:22:49.358Z,100588.94
2024-02-15T01:25:16.866Z,100592.38
2024-02-15T01:27:43.713Z,100599.66
2024-02-15T01:30:11.470Z,100595.81
2024-02-15T01:32:38.480Z,100590.50
2024-02-15T01:35:05.387Z,100588.63
2024-02-15T01:37:32.016Z,100581.81
2024-02-15T01:39:58.574Z,100593.31
2024-02-15T01:42:25.626Z,100593.91
2024-02-15T01:44:54.132Z,100599.03
2024-02-15T01:47:21.461Z,100594.66
2024-02-15T01:49:50.134Z,100594.38
2024-02-15T01:52:18.684Z,100583.72
2024-02-15T01:54:47.050Z,100583.66
2024-02-15T01:57:13.837Z,100586.28
2024-02-15T01:59:40.775Z,100586.22
2024-02-15T02:02:11.518Z,100580.81
2024-02-15T02:04:39.555Z,100579.00
2024-02-15T02:07:06.352Z,100577.16
2024-02-15T02:09:33.115Z,100571.28
2024-02-15T02:12:00.723Z,100573.94
2024-02-15T02:17:14.870Z,100567.59
2024-02-15T02:19:42.881Z,100565.44
2024-02-15T02:22:10.618Z,100562.03
2024-02-15T02:24:46.501Z,100572.75
2024-02-15T02:27:15.026Z,100569.38
2024-02-15T02:29:47.753Z,100568.59
2024-02-15T02:32:14.485Z,100563.59
2024-02-15T02:34:42.095Z,100561.91
2024-02-15T02:37:09.800Z,100557.81
2024-02-15T02:39:44.600Z,100559.13
2024-02-15T02:42:12.481Z,100562.03
2024-02-15T02:44:39.088Z,100568.63
2024-02-15T02:47:05.683Z,100569.38
2024-02-15T02:49:32.742Z,100573.22
2024-02-15T02:51:59.322Z,100568.09
2024-02-15T02:54:25.913Z,100570.91
2024-02-15T02:56:52.471Z,100569.13
2024-02-15T02:59:19.061Z,100572.28
2024-02-15T03:01:45.758Z,100570.56
2024-02-15T03:04:13.537Z,100575.97
2024-02-15T03:06:43.406Z,100575.09
2024-02-15T03:09:11.147Z,100576.03
2024-02-15T03:11:37.879Z,100576.97
2024-02-15T03:14:05.371Z,100575.19
2024-02-15T03:16:35.122Z,100574.16
2024-02-15T03:19:05.815Z,100576.53
2024-02-15T03:21:32.761Z,100580.78
2024-02-15T03:23:59.590Z,100577.06
2024-02-15T03:26:39.623Z,100573.38
2024-02-15T03:29:06.385Z,100570.56
2024-02-15T03:31:34.733Z,100575.66
2024-02-15T03:34:01.849Z,100582.38
2024-02-15T03:36:30.401Z,100579.41
2024-02-15T03:38:57.178Z,100587.16
2024-02-15T03:41:24.103Z,100582.63
2024-02-15T03:43:51.549Z,100576.75
2024-02-15T03:46:18.148Z,100584.69
2024-02-15T03:48:45.546Z,100579.41
2024-02-15T03:51:12.453Z,100585.25
2024-02-15T03:53:39.053Z,100585.09
2024-02-15T03:56:05.793Z,100581.53
2024-02-15T03:58:34.047Z,100578.97
2024-02-15T04:01:00.872Z,100575.31
2024-02-15T04:03:27.641Z,100579.47
2024-02-15T04:05:54.395Z,100573.13
2024-02-15T04:08:21.051Z,100578.16
2024-02-15T04:10:50.180Z,100576.28
2024-02-15T04:13:18.387Z,100573.47
2024-02-15T04:15:45.436Z,100565.53
2024-02-15T04:18:13.714Z,100573.47
2024-02-15T04:20:46.009Z,100570.81
2024-02-15T04:23:13.131Z,100570.81
2024-02-15T04:25:40.191Z,100565.31
2024-02-15T04:28:07.798Z,100578.59
2024-02-15T04:30:36.138Z,100578.34
2024-02-15T04:33:02.823Z,100575.53
2024-02-15T04:35:32.264Z,100577.97
2024-02-15T04:37:58.944Z,100584.81
2024-02-15T04:40:25.485Z,100580.66
2024-02-15T04:42:52.129Z,100573.94
2024-02-15T04:45:20.108Z,100575.47
2024-02-15T04:47:47.728Z,100570.97
2024-02-15T04:50:14.793Z,100565.56
2024-02-15T04:52:41.330Z,100565.47
2024-02-15T04:55:08.376Z,100574.94
2024-02-15T04:57:37.903Z,100569.31
2024-02-15T05:00:12.642Z,100581.38
2024-02-15T05:02:42.318Z,100572.53
2024-02-15T05:05:09.786Z,100574.03
2024-02-15T05:07:38.685Z,100579.91
2024-02-15T05:10:07.390Z,100577.09
2024-02-15T05:12:36.904Z,100587.38
2024-02-15T05:15:11.405Z,100578.44
2024-02-15T05:17:42.182Z,100582.38
2024-02-15T05:20:14.849Z,100580.81
2024-02-15T05:22:50.359Z,100578.91
2024-02-15T05:25:23.787Z,100579.50
2024-02-15T05:27:51.555Z,100582.50
2024-02-15T05:30:18.429Z,100574.81
2024-02-15T05:32:46.725Z,100589.75
2024-02-15T05:35:13.621Z,100585.97
2024-02-15T05:37:40.535Z,100591.84
2024-02-15T05:40:08.524Z,100595.25
2024-02-15T05:42:36.079Z,100589.72
2024-02-15T05:45:41.531Z,100587.22
2024-02-15T05:48:08.971Z,100595.06
2024-02-15T05:50:36.153Z,100602.91
2024-02-15T05:53:03.122Z,100596.94
2024-02-15T05:55:30.580Z,100595.81
2024-02-15T05:57:57.169Z,100611.47
2024-02-15T06:00:24.293Z,100605.25
2024-02-15T06:02:51.754Z,100608.66
2024-02-15T06:05:21.254Z,100607.25
2024-02-15T06:07:48.677Z,100610.38
2024-02-15T06:10:16.524Z,100605.78
2024-02-15T06:12:44.087Z,100612.19
2024-02-15T06:15:16.489Z,100610.16
2024-02-15T06:17:45.407Z,100609.09
2024-02-15T06:20:15.193Z,100614.94
2024-02-15T06:22:42.611Z,100621.59
2024-02-15T06:25:11.272Z,100626.22
2024-02-15T06:27:41.875Z,100621.50
2024-02-15T06:30:29.185Z,100617.47
2024-02-15T06:33:14.711Z,100614.56
2024-02-15T06:35:59.885Z,100617.69
2024-02-15T06:38:45.197Z,100628.13
2024-02-15T06:41:11.944Z,100626.13
2024-02-15T06:43:38.683Z,100630.91
2024-02-15T06:46:08.020Z,100633.41
2024-02-15T06:48:34.786Z,100642.78
2024-02-15T06:51:01.633Z,100644.56
2024-02-15T06:53:28.206Z,100636.94
2024-02-15T06:55:54.920Z,100642.84
2024-02-15T06:58:21.688Z,100646.53
2024-02-15T07:00:51.396Z,100651.38
2024-02-15T07:03:18.235Z,100648.94
2024-02-15T07:05:45.330Z,100643.13
2024-02-15T07:08:12.125Z,100652.22
2024-02-15T07:10:42.527Z,100656.75
2024-02-15T07:13:09.155Z,100650.91
2024-02-15T07:15:39.127Z,100638.97
2024-02-15T07:18:07.496Z,100649.94
2024-02-15T07:20:35.453Z,100648.63
2024-02-15T07:23:02.207Z,100657.88
2024-02-15T07:25:28.890Z,100659.22
2024-02-15T07:27:55.564Z,100666.00
2024-02-15T07:30:24.909Z,100660.31
2024-02-15T07:32:52.757Z,100660.88
2024-02-15T07:35:19.473Z,100664.28
2024-02-15T07:37:56.946Z,100666.72
2024-02-15T07:40:23.859Z,100650.84
2024-02-15T07:42:50.526Z,100653.47
2024-02-15T07:45:18.375Z,100654.16
2024-02-15T07:47:46.258Z,100654.03
2024-02-15T07:50:20.414Z,100660.66
2024-02-15T07:52:49.013Z,100661.09
2024-02-15T07:55:15.825Z,100652.84
2024-02-15T07:57:42.517Z,100651.50
2024-02-15T08:00:12.177Z,100648.84
2024-02-15T08:02:41.931Z,100648.72
2024-02-15T08:05:11.620Z,100647.56
2024-02-15T08:07:48.795Z,100652.66
2024-02-15T08:10:15.537Z,100648.25
2024-02-15T08:12:43.894Z,100650.72
2024-02-15T08:15:13.282Z,100647.94
2024-02-15T08:17:47.399Z,100645.16
2024-02-15T08:20:14.884Z,100646.59
2024-02-15T08:22:42.132Z,100643.59
2024-02-15T08:25:13.116Z,100645.59
2024-02-15T08:27:45.610Z,100641.25
2024-02-15T08:30:14.648Z,100641.63
2024-02-15T08:32:43.643Z,100651.06
2024-02-15T08:35:11.709Z,100647.19
2024-02-15T08:37:39.934Z,100648.63
2024-02-15T08:40:12.066Z,100643.38
2024-02-15T08:42:42.980Z,100657.19
2024-02-15T08:45:10.882Z,100663.28
2024-02-15T08:47:42.873Z,100659.66
2024-02-15T08:50:11.063Z,100668.41
2024-02-15T08:52:41.582Z,100667.38
2024-02-15T08:55:15.731Z,100663.06
2024-02-15T08:57:45.134Z,100655.09
2024-02-15T09:00:17.168Z,100664.75
2024-02-15T09:02:45.286Z,100672.19
2024-02-15T09:05:15.710Z,100671.00
2024-02-15T09:07:44.010Z,100670.31
2024-02-15T09:10:11.701Z,100666.44
2024-02-15T09:12:42.174Z,100666.22
2024-02-15T09:15:14.256Z,100659.34
2024-02-15T09:17:41.366Z,100662.56
2024-02-15T09:20:08.990Z,100657.03
2024-02-15T09:22:37.067Z,100661.94
2024-02-15T09:25:04.484Z,100664.50
2024-02-15T09:27:31.073Z,100666.81
2024-02-15T09:29:57.709Z,100673.06
2024-02-15T09:32:24.484Z,100668.84
2024-02-15T09:34:51.149Z,100672.59
2024-02-15T09:37:17.776Z,100676.22
2024-02-15T09:39:44.357Z,100678.06
2024-02-15T09:42:11.255Z,100668.75
2024-02-15T09:44:38.575Z,100662.78
2024-02-15T09:47:08.085Z,100659.72
2024-02-15T09:49:40.918Z,100662.56
2024-02-15T09:52:17.304Z,100656.03
2024-02-15T09:54:45.157Z,100660.13
2024-02-15T09:57:12.763Z,100657.47
2024-02-15T09:59:41.141Z,100659.41
2024-02-15T10:02:12.199Z,100656.00
2024-02-15T10:04:41.200Z,100656.31
2024-02-15T10:07:10.736Z,100661.63
2024-02-15T10:09:43.905Z,100659.94
2024-02-15T10:12:10.802Z,100657.28
2024-02-15T10:14:37.665Z,100658.50
2024-02-15T10:17:18.356Z,100657.38
2024-02-15T10:19:45.497Z,100657.66
2024-02-15T10:22:15.939Z,100657.22
2024-02-15T10:24:42.825Z,100652.00
2024-02-15T10:27:11.512Z,100652.84
2024-02-15T10:29:39.905Z,100652.84
2024-02-15T10:32:11.393Z,100648.69
2024-02-15T10:34:48.329Z,100646.44
2024-02-15T10:37:20.265Z,100654.91
2024-02-15T10:39:48.033Z,100655.22
2024-02-15T10:42:16.553Z,100651.25
2024-02-15T10:44:44.588Z,100649.44
2024-02-15T10:47:11.313Z,100654.66
2024-02-15T10:49:38.070Z,100649.09
2024-02-15T10:52:05.782Z,100649.09
2024-02-15T10:54:45.674Z,100646.00
2024-02-15T10:57:16.426Z,100641.53
2024-02-15T10:59:58.741Z,100642.72
2024-02-15T11:02:35.947Z,100646.63
2024-02-15T11:05:05.618Z,100645.88
2024-02-15T11:07:33.476Z,100640.84
2024-02-15T11:10:01.132Z,100638.63
2024-02-15T11:12:29.556Z,100641.88
2024-02-15T11:14:56.621Z,100632.69
2024-02-15T11:17:41.351Z,100632.25
2024-02-15T11:20:10.164Z,100629.31
2024-02-15T11:22:37.805Z,100623.97
2024-02-15T11:25:10.025Z,100622.06
2024-02-15T11:27:44.991Z,100624.38
2024-02-15T11:30:13.826Z,100626.72
2024-02-15T11:32:42.082Z,100619.97
2024-02-15T11:35:15.532Z,100619.06
2024-02-15T11:37:55.166Z,100625.50
2024-02-15T11:40:42.464Z,100626.88
2024-02-15T11:43:12.617Z,100632.78
2024-02-15T11:45:42.575Z,100630.88
2024-02-15T11:48:14.295Z,100623.66
2024-02-15T11:50:42.482Z,100617.56
2024-02-15T11:53:13.405Z,100616.69
2024-02-15T11:55:42.614Z,100616.41
2024-02-15T11:58:10.557Z,100618.72
2024-02-15T12:00:57.622Z,100614.66
2024-02-15T12:03:52.402Z,100609.72
2024-02-15T12:06:50.833Z,100605.16
2024-02-15T12:09:40.007Z,100605.09
2024-02-15T12:12:26.120Z,100600.06
2024-02-15T12:15:21.178Z,100607.78
2024-02-15T12:18:06.827Z,100599.56
2024-02-15T12:20:34.349Z,100590.63
2024-02-15T12:23:01.890Z,100595.03
2024-02-15T12:25:28.889Z,100592.28
2024-02-15T12:28:01.078Z,100589.22
2024-02-15T12:30:34.114Z,100586.91
2024-02-15T12:33:12.660Z,100591.78
2024-02-15T12:35:39.648Z,100588.13
2024-02-15T12:38:06.682Z,100577.50
2024-02-15T12:40:35.373Z,100581.19
2024-02-15T12:43:02.218Z,100572.97
2024-02-15T12:45:31.228Z,100577.69
2024-02-15T12:47:59.070Z,100575.41
2024-02-15T12:50:30.842Z,100578.47
2024-02-15T12:53:03.270Z,100572.13
2024-02-15T12:55:37.390Z,100581.34
2024-02-15T12:58:09.693Z,100580.59
2024-02-15T13:00:40.136Z,100582.25
2024-02-15T13:03:12.972Z,100581.75
2024-02-15T13:05:41.069Z,100583.84
2024-02-15T13:08:14.779Z,100581.91
2024-02-15T13:10:42.100Z,100585.31
2024-02-15T13:13:13.273Z,100582.28
2024-02-15T13:15:40.387Z,100586.31
2024-02-15T13:18:11.434Z,100570.88
2024-02-15T13:20:39.252Z,100580.41
2024-02-15T13:23:15.595Z,100578.94
2024-02-15T13:25:44.414Z,100571.53
2024-02-15T13:28:14.667Z,100567.09
2024-02-15T13:30:44.260Z,100561.28
2024-02-15T13:33:11.471Z,100562.41
2024-02-15T13:35:38.419Z,100557.44
2024-02-15T13:38:04.978Z,100561.81
2024-02-15T13:40:32.877Z,100559.97
2024-02-15T13:43:01.090Z,100569.81
2024-02-15T13:45:34.333Z,100564.75
2024-02-15T13:48:04.670Z,100561.72
2024-02-15T13:50:32.380Z,100560.44
2024-02-15T13:52:59.780Z,100545.72
2024-02-15T13:55:27.438Z,100547.63
2024-02-15T13:57:55.195Z,100555.56
2024-02-15T14:00:30.539Z,100553.78
2024-02-15T14:02:59.608Z,100554.47
2024-02-15T14:05:31.630Z,100549.53
2024-02-15T14:08:03.458Z,100557.59
2024-02-15T14:10:31.753Z,100558.75
2024-02-15T14:13:04.780Z,100552.22
2024-02-15T14:15:31.839Z,100557.44
2024-02-15T14:18:02.533Z,100549.84
2024-02-15T14:20:29.222Z,100553.13
2024-02-15T14:22:58.776Z,100549.50
2024-02-15T14:25:32.332Z,100542.38
2024-02-15T14:27:59.483Z,100544.09
2024-02-15T14:30:44.898Z,100547.03
2024-02-15T14:35:47.351Z,100537.00
2024-02-15T14:38:14.967Z,100545.25
2024-02-15T14:40:46.250Z,100542.44
2024-02-15T14:43:19.793Z,100548.22
2024-02-15T14:45:46.984Z,100549.16
2024-02-15T14:48:14.705Z,100550.84
2024-02-15T14:50:41.727Z,100556.34
2024-02-15T14:53:09.219Z,100549.31
2024-02-15T14:55:36.939Z,100541.56
2024-02-15T14:58:04.873Z,100541.34
2024-02-15T15:00:37.906Z,100539.78
2024-02-15T15:03:05.540Z,100549.84
2024-02-15T15:05:51.242Z,100551.00
2024-02-15T15:08:36.224Z,100550.41
2024-02-15T15:11:21.392Z,100544.47
2024-02-15T15:13:48.028Z,100549.94
2024-02-15T15:16:18.922Z,100550.44
2024-02-15T15:18:47.474Z,100551.13
2024-02-15T15:21:17.803Z,100547.09
2024-02-15T15:23:44.873Z,100544.66
2024-02-15T15:26:12.644Z,100543.66
2024-02-15T15:28:40.109Z,100545.44
2024-02-15T15:31:08.353Z,100548.03
2024-02-15T15:33:35.230Z,100548.53
2024-02-15T15:36:02.067Z,100543.72
2024-02-15T15:38:28.719Z,100541.47
2024-02-15T15:40:55.891Z,100541.09
2024-02-15T15:43:24.369Z,100538.44
2024-02-15T15:45:52.546Z,100540.88
2024-02-15T15:48:19.474Z,100535.31
2024-02-15T15:50:46.190Z,100543.56
2024-02-15T15:53:12.844Z,100542.19
2024-02-15T15:55:39.440Z,100550.41
2024-02-15T15:58:06.573Z,100547.16
2024-02-15T16:00:34.922Z,100543.06
2024-02-15T16:03:02.926Z,100549.00
2024-02-15T16:05:29.652Z,100541.16
2024-02-15T16:07:56.398Z,100543.91
2024-02-15T16:10:29.314Z,100541.47
2024-02-15T16:13:01.564Z,100553.34
2024-02-15T16:15:28.756Z,100548.88
2024-02-15T16:17:55.934Z,100545.13
2024-02-15T16:20:23.987Z,100535.19
2024-02-15T16:22:50.862Z,100551.31
2024-02-15T16:25:17.759Z,100544.13
2024-02-15T16:27:44.903Z,100549.72
2024-02-15T16:30:12.475Z,100551.63
2024-02-15T16:32:39.738Z,100552.09
2024-02-15T16:35:12.347Z,100550.66
2024-02-15T16:37:43.063Z,100552.09
2024-02-15T16:40:13.010Z,100559.63
2024-02-15T16:42:44.099Z,100561.06
2024-02-15T16:45:13.280Z,100564.88
2024-02-15T16:47:47.149Z,100568.34
2024-02-15T16:50:14.668Z,100572.03
2024-02-15T16:52:44.122Z,100575.69
2024-02-15T16:55:11.764Z,100576.81
2024-02-15T16:57:39.835Z,100575.47
2024-02-15T17:00:08.586Z,100578.59
2024-02-15T17:02:39.945Z,100582.88
2024-02-15T17:05:09.005Z,100596.03
2024-02-15T17:07:36.357Z,100593.22
2024-02-15T17:10:02.842Z,100600.88
2024-02-15T17:12:29.834Z,100603.19
2024-02-15T17:14:56.868Z,100600.81
2024-02-15T17:17:25.090Z,100599.13
2024-02-15T17:19:52.669Z,100605.78
2024-02-15T17:22:19.912Z,100609.69
2024-02-15T17:24:46.668Z,100615.41
2024-02-15T17:27:13.737Z,100614.28
2024-02-15T17:29:43.126Z,100611.63
2024-02-15T17:32:09.708Z,100609.38
2024-02-15T17:34:36.638Z,100601.25
2024-02-15T17:37:03.512Z,100605.06
2024-02-15T17:39:30.122Z,100605.72
2024-02-15T17:41:56.885Z,100612.31
2024-02-15T17:44:23.839Z,100615.41
2024-02-15T17:46:51.345Z,100615.28
2024-02-15T17:49:19.574Z,100618.59
2024-02-15T17:51:47.231Z,100616.38
2024-02-15T17:54:15.055Z,100618.63
2024-02-15T17:56:42.877Z,100620.09
2024-02-15T17:59:11.527Z,100616.41
2024-02-15T18:01:41.110Z,100612.47
2024-02-15T18:04:08.470Z,100616.63
2024-02-15T18:06:35.459Z,100609.09
2024-02-15T18:09:02.313Z,100605.56
2024-02-15T18:11:29.663Z,100604.41
2024-02-15T18:13:56.453Z,100604.53
2024-02-15T18:16:23.227Z,100609.69
2024-02-15T18:18:50.805Z,100603.69
2024-02-15T18:21:17.962Z,100601.13
2024-02-15T18:23:46.459Z,100604.53
2024-02-15T18:26:13.344Z,100602.50
2024-02-15T18:28:40.003Z,100604.09
2024-02-15T18:31:09.554Z,100601.31
2024-02-15T18:33:40.666Z,100602.81
2024-02-15T18:36:09.994Z,100598.97
2024-02-15T18:38:40.424Z,100603.66
2024-02-15T18:41:07.340Z,100603.75
2024-02-15T18:43:35.998Z,100597.72
2024-02-15T18:46:02.932Z,100595.06
2024-02-15T18:48:33.504Z,100600.59
2024-02-15T18:51:00.415Z,100597.94
2024-02-15T18:53:27.089Z,100587.84
2024-02-15T18:55:56.871Z,100595.28
2024-02-15T18:58:26.987Z,100596.50
2024-02-15T19:00:58.230Z,100591.41
2024-02-15T19:03:26.322Z,100598.63
2024-02-15T19:05:53.396Z,100596.59
2024-02-15T19:08:20.851Z,100599.16
2024-02-15T19:10:47.910Z,100599.56
2024-02-15T19:13:15.025Z,100606.66
2024-02-15T19:15:41.740Z,100603.66
2024-02-15T19:18:12.140Z,100615.09
2024-02-15T19:20:39.617Z,100609.59
2024-02-15T19:23:09.244Z,100605.16
2024-02-15T19:25:36.167Z,100607.09
2024-02-15T19:28:06.545Z,100605.06
2024-02-15T19:30:33.638Z,100614.38
2024-02-15T19:33:00.462Z,100609.34
2024-02-15T19:35:27.188Z,100609.09
2024-02-15T19:37:53.811Z,100616.09
2024-02-15T19:40:20.848Z,100616.19
2024-02-15T19:42:49.821Z,100618.56
2024-02-15T19:45:21.795Z,100627.44
2024-02-15T19:47:50.660Z,100625.56
2024-02-15T19:50:23.280Z,100629.63
2024-02-15T19:52:50.366Z,100627.66
2024-02-15T19:55:17.390Z,100626.97
2024-02-15T19:57:44.204Z,100632.28
2024-02-15T20:00:11.621Z,100629.16
2024-02-15T20:02:38.491Z,100634.38
2024-02-15T20:05:08.102Z,100627.28
2024-02-15T20:07:38.595Z,100625.28
2024-02-15T20:10:09.032Z,100620.91
2024-02-15T20:12:37.193Z,100629.53
2024-02-15T20:15:04.786Z,100627.34
2024-02-15T20:17:31.866Z,100622.53
2024-02-15T20:19:58.871Z,100624.22
2024-02-15T20:22:25.653Z,100620.06
2024-02-15T20:24:52.229Z,100619.84
2024-02-15T20:27:22.729Z,100626.22
2024-02-15T20:29:52.991Z,100623.97
2024-02-15T20:32:19.867Z,100624.16
2024-02-15T20:34:47.465Z,100622.25
2024-02-15T20:37:15.111Z,100627.53
2024-02-15T20:39:41.794Z,100628.00
2024-02-15T20:42:09.651Z,100635.47
2024-02-15T20:44:38.119Z,100631.66
2024-02-15T20:47:11.192Z,100633.06
2024-02-15T20:49:40.135Z,100634.44
2024-02-15T20:52:08.458Z,100634.25
2024-02-15T20:54:35.173Z,100634.03
2024-02-15T20:57:02.007Z,100642.56
2024-02-15T20:59:28.791Z,100640.41
2024-02-15T21:01:55.967Z,100634.66
2024-02-15T21:04:22.909Z,100627.66
2024-02-15T21:06:50.440Z,100627.47
2024-02-15T21:09:17.631Z,100635.03
2024-02-15T21:11:47.962Z,100637.44
2024-02-15T21:14:15.919Z,100634.16
2024-02-15T21:16:43.581Z,100633.22
2024-02-15T21:19:11.037Z,100635.56
2024-02-15T21:21:38.627Z,100635.47
2024-02-15T21:24:07.107Z,100631.66
2024-02-15T21:26:34.135Z,100628.69
2024-02-15T21:29:00.833Z,100635.47
2024-02-15T21:31:27.571Z,100622.63
2024-02-15T21:33:55.535Z,100624.34
2024-02-15T21:36:22.722Z,100624.66
2024-02-15T21:38:51.729Z,100620.97
2024-02-15T21:41:18.585Z,100619.25
2024-02-15T21:43:45.264Z,100620.75
2024-02-15T21:46:12.434Z,100615.25
2024-02-15T21:48:39.221Z,100620.16
2024-02-15T21:51:06.524Z,100617.38
2024-02-15T21:53:33.516Z,100621.63
2024-02-15T21:56:00.872Z,100616.31
2024-02-15T21:58:28.015Z,100622.78
2024-02-15T22:00:56.221Z,100620.97
2024-02-15T22:03:24.301Z,100620.69
2024-02-15T22:05:51.452Z,100614.22
2024-02-15T22:08:18.578Z,100620.91
2024-02-15T22:10:45.229Z,100617.19
2024-02-15T22:13:15.055Z,100624.09
2024-02-15T22:15:42.093Z,100621.44
2024-02-15T22:18:09.430Z,100623.97
2024-02-15T22:20:36.447Z,100623.88
2024-02-15T22:23:03.945Z,100621.88
2024-02-15T22:25:33.766Z,100615.63
2024-02-15T22:28:00.476Z,100620.91
2024-02-15T22:30:27.214Z,100614.75
2024-02-15T22:32:54.333Z,100620.81
2024-02-15T22:35:21.038Z,100623.38
2024-02-15T22:37:48.769Z,100628.69
2024-02-15T22:40:15.956Z,100620.81
2024-02-15T22:42:42.730Z,100621.66
2024-02-15T22:45:10.882Z,100628.88
2024-02-15T22:47:37.853Z,100627.59
2024-02-15T22:50:05.172Z,100617.81
2024-02-15T22:52:31.716Z,100628.13
2024-02-15T22:55:05.594Z,100627.38
2024-02-15T22:57:33.056Z,100619.63
2024-02-15T23:00:00.972Z,100614.00
2024-02-15T23:02:27.678Z,100616.66
2024-02-15T23:04:54.315Z,100615.81
2024-02-15T23:07:24.446Z,100611.78
2024-02-15T23:09:51.389Z,100614.44
2024-02-15T23:12:18.092Z,100616.00
2024-02-15T23:14:45.677Z,100616.75
2024-02-15T23:17:12.519Z,100608.72
2024-02-15T23:19:40.422Z,100615.16
2024-02-15T23:22:10.060Z,100614.44
2024-02-15T23:24:38.633Z,100619.72
2024-02-15T23:27:06.729Z,100621.63
2024-02-15T23:29:33.610Z,100628.63
2024-02-15T23:32:00.167Z,100626.16
2024-02-15T23:34:27.005Z,100613.88
2024-02-15T23:37:12.308Z,100609.53
2024-02-15T23:39:59.198Z,100614.41
2024-02-15T23:42:26.924Z,100615.25
2024-02-15T23:44:53.790Z,100611.94
2024-02-15T23:47:20.709Z,100614.59
2024-02-15T23:49:47.508Z,100607.59
2024-02-15T23:52:14.072Z,100610.53
2024-02-15T23:54:40.738Z,100610.53
2024-02-15T23:57:07.742Z,100603.75
2024-02-15T23:59:34.685Z,100600.34
